sensor_id;sensor_type;location;lat;lon;timestamp;P1;durP1;ratioP1;P2;durP2;ratioP2
2760;SDS011;15420;48.636;9.798;2022-09-23T00:01:05;6.33;;;4.90;;
2760;SDS011;15420;48.636;9.798;2022-09-23T00:03:37;5.33;;;4.80;;
2760;SDS011;15420;48.636;9.798;2022-09-23T00:06:06;5.90;;;4.93;;
2760;SDS011;15420;48.636;9.798;2022-09-23T00:08:35;5.97;;;5.43;;
2760;SDS011;15420;48.636;9.798;2022-09-23T00:11:05;6.40;;;4.80;;
2760;SDS011;15420;48.636;9.798;2022-09-23T00:13:39;6.80;;;5.90;;
2760;SDS011;15420;48.636;9.798;2022-09-23T00:16:08;7.03;;;5.03;;
2760;SDS011;15420;48.636;9.798;2022-09-23T00:18:36;6.00;;;5.13;;
2760;SDS011;15420;48.636;9.798;2022-09-23T00:21:05;5.60;;;4.50;;
2760;SDS011;15420;48.636;9.798;2022-09-23T00:23:35;6.43;;;5.27;;
2760;SDS011;15420;48.636;9.798;2022-09-23T00:26:03;5.50;;;4.60;;
2760;SDS011;15420;48.636;9.798;2022-09-23T00:28:30;5.43;;;4.83;;
2760;SDS011;15420;48.636;9.798;2022-09-23T00:31:08;6.30;;;5.00;;
2760;SDS011;15420;48.636;9.798;2022-09-23T00:33:39;7.07;;;5.10;;
2760;SDS011;15420;48.636;9.798;2022-09-23T00:36:06;5.20;;;4.30;;
2760;SDS011;15420;48.636;9.798;2022-09-23T00:38:39;7.00;;;5.27;;
2760;SDS011;15420;48.636;9.798;2022-09-23T00:41:06;5.23;;;4.63;;
2760;SDS011;15420;48.636;9.798;2022-09-23T00:43:49;6.37;;;4.93;;
2760;SDS011;15420;48.636;9.798;2022-09-23T00:52:05;5.70;;;5.07;;
2760;SDS011;15420;48.636;9.798;2022-09-23T00:54:37;7.43;;;5.30;;
2760;SDS011;15420;48.636;9.798;2022-09-23T00:57:06;5.37;;;4.80;;
2760;SDS011;15420;48.636;9.798;2022-09-23T00:59:35;6.50;;;5.00;;
2760;SDS011;15420;48.636;9.798;2022-09-23T01:02:01;6.80;;;5.47;;
2760;SDS011;15420;48.636;9.798;2022-09-23T01:04:28;5.93;;;5.10;;
2760;SDS011;15420;48.636;9.798;2022-09-23T01:06:55;6.00;;;5.17;;
2760;SDS011;15420;48.636;9.798;2022-09-23T01:09:21;6.17;;;5.57;;
2760;SDS011;15420;48.636;9.798;2022-09-23T01:17:08;5.80;;;5.10;;
2760;SDS011;15420;48.636;9.798;2022-09-23T01:34:02;6.50;;;5.63;;
2760;SDS011;15420;48.636;9.798;2022-09-23T01:36:49;8.07;;;5.90;;
2760;SDS011;15420;48.636;9.798;2022-09-23T01:52:29;8.27;;;5.90;;
2760;SDS011;15420;48.636;9.798;2022-09-23T01:55:16;7.10;;;6.30;;
2760;SDS011;15420;48.636;9.798;2022-09-23T01:58:02;5.43;;;4.90;;
2760;SDS011;15420;48.636;9.798;2022-09-23T02:00:35;7.27;;;6.03;;
2760;SDS011;15420;48.636;9.798;2022-09-23T02:03:10;8.03;;;5.77;;
2760;SDS011;15420;48.636;9.798;2022-09-23T02:05:57;7.93;;;5.80;;
2760;SDS011;15420;48.636;9.798;2022-09-23T02:08:29;5.80;;;5.27;;
2760;SDS011;15420;48.636;9.798;2022-09-23T02:11:11;8.70;;;6.13;;
2760;SDS011;15420;48.636;9.798;2022-09-23T02:16:17;8.40;;;5.73;;
2760;SDS011;15420;48.636;9.798;2022-09-23T02:18:55;8.80;;;5.73;;
2760;SDS011;15420;48.636;9.798;2022-09-23T02:21:35;7.97;;;6.03;;
2760;SDS011;15420;48.636;9.798;2022-09-23T02:24:18;7.93;;;5.33;;
2760;SDS011;15420;48.636;9.798;2022-09-23T02:27:03;8.13;;;5.33;;
2760;SDS011;15420;48.636;9.798;2022-09-23T02:40:52;7.43;;;5.67;;
2760;SDS011;15420;48.636;9.798;2022-09-23T02:43:37;6.17;;;5.57;;
2760;SDS011;15420;48.636;9.798;2022-09-23T02:46:24;6.57;;;5.30;;
2760;SDS011;15420;48.636;9.798;2022-09-23T02:51:25;7.03;;;5.23;;
2760;SDS011;15420;48.636;9.798;2022-09-23T02:53:56;7.47;;;5.90;;
2760;SDS011;15420;48.636;9.798;2022-09-23T02:56:24;6.77;;;5.57;;
2760;SDS011;15420;48.636;9.798;2022-09-23T02:58:53;9.47;;;6.60;;
2760;SDS011;15420;48.636;9.798;2022-09-23T03:07:17;9.50;;;6.30;;
2760;SDS011;15420;48.636;9.798;2022-09-23T03:15:36;8.63;;;6.17;;
2760;SDS011;15420;48.636;9.798;2022-09-23T03:20:57;8.53;;;6.30;;
2760;SDS011;15420;48.636;9.798;2022-09-23T03:23:30;7.63;;;5.53;;
2760;SDS011;15420;48.636;9.798;2022-09-23T03:26:05;7.23;;;6.00;;
2760;SDS011;15420;48.636;9.798;2022-09-23T03:28:39;10.53;;;6.40;;
2760;SDS011;15420;48.636;9.798;2022-09-23T03:31:09;7.73;;;6.30;;
2760;SDS011;15420;48.636;9.798;2022-09-23T03:33:38;6.80;;;5.47;;
2760;SDS011;15420;48.636;9.798;2022-09-23T03:36:12;8.53;;;6.27;;
2760;SDS011;15420;48.636;9.798;2022-09-23T03:39:05;8.87;;;5.30;;
2760;SDS011;15420;48.636;9.798;2022-09-23T03:41:37;8.67;;;6.30;;
2760;SDS011;15420;48.636;9.798;2022-09-23T03:44:09;8.40;;;6.23;;
2760;SDS011;15420;48.636;9.798;2022-09-23T03:46:38;5.87;;;5.03;;
2760;SDS011;15420;48.636;9.798;2022-09-23T03:49:16;6.70;;;5.67;;
2760;SDS011;15420;48.636;9.798;2022-09-23T03:51:48;7.10;;;6.37;;
2760;SDS011;15420;48.636;9.798;2022-09-23T03:54:17;7.67;;;6.73;;
2760;SDS011;15420;48.636;9.798;2022-09-23T03:56:47;10.07;;;7.37;;
2760;SDS011;15420;48.636;9.798;2022-09-23T03:59:14;8.40;;;6.90;;
2760;SDS011;15420;48.636;9.798;2022-09-23T04:01:41;8.60;;;6.60;;
2760;SDS011;15420;48.636;9.798;2022-09-23T04:04:10;7.40;;;6.50;;
2760;SDS011;15420;48.636;9.798;2022-09-23T04:06:38;8.70;;;6.10;;
2760;SDS011;15420;48.636;9.798;2022-09-23T04:09:04;12.40;;;6.90;;
2760;SDS011;15420;48.636;9.798;2022-09-23T04:11:31;10.47;;;8.27;;
2760;SDS011;15420;48.636;9.798;2022-09-23T04:13:57;12.00;;;8.10;;
2760;SDS011;15420;48.636;9.798;2022-09-23T04:16:26;9.20;;;7.00;;
2760;SDS011;15420;48.636;9.798;2022-09-23T04:18:52;9.30;;;7.33;;
2760;SDS011;15420;48.636;9.798;2022-09-23T04:21:18;9.43;;;8.00;;
2760;SDS011;15420;48.636;9.798;2022-09-23T04:23:49;12.10;;;8.33;;
2760;SDS011;15420;48.636;9.798;2022-09-23T04:26:20;10.47;;;7.80;;
2760;SDS011;15420;48.636;9.798;2022-09-23T04:28:49;11.40;;;7.97;;
2760;SDS011;15420;48.636;9.798;2022-09-23T04:31:15;9.37;;;7.53;;
2760;SDS011;15420;48.636;9.798;2022-09-23T04:33:41;8.87;;;6.93;;
2760;SDS011;15420;48.636;9.798;2022-09-23T04:36:07;8.63;;;6.23;;
2760;SDS011;15420;48.636;9.798;2022-09-23T04:38:36;10.43;;;6.30;;
2760;SDS011;15420;48.636;9.798;2022-09-23T04:41:02;6.97;;;6.00;;
2760;SDS011;15420;48.636;9.798;2022-09-23T04:43:30;10.43;;;6.17;;
2760;SDS011;15420;48.636;9.798;2022-09-23T04:45:59;7.23;;;6.40;;
2760;SDS011;15420;48.636;9.798;2022-09-23T04:48:30;6.87;;;5.60;;
2760;SDS011;15420;48.636;9.798;2022-09-23T04:51:00;9.40;;;7.83;;
2760;SDS011;15420;48.636;9.798;2022-09-23T04:53:31;8.53;;;6.80;;
2760;SDS011;15420;48.636;9.798;2022-09-23T04:56:01;9.23;;;6.63;;
2760;SDS011;15420;48.636;9.798;2022-09-23T04:58:29;8.97;;;6.80;;
2760;SDS011;15420;48.636;9.798;2022-09-23T05:01:13;11.50;;;7.10;;
2760;SDS011;15420;48.636;9.798;2022-09-23T05:03:55;10.10;;;7.37;;
2760;SDS011;15420;48.636;9.798;2022-09-23T05:06:26;10.50;;;7.60;;
2760;SDS011;15420;48.636;9.798;2022-09-23T05:08:58;7.60;;;6.80;;
2760;SDS011;15420;48.636;9.798;2022-09-23T05:11:25;8.40;;;7.17;;
2760;SDS011;15420;48.636;9.798;2022-09-23T05:13:53;11.33;;;8.07;;
2760;SDS011;15420;48.636;9.798;2022-09-23T05:16:22;9.30;;;6.87;;
2760;SDS011;15420;48.636;9.798;2022-09-23T05:18:51;10.13;;;7.97;;
2760;SDS011;15420;48.636;9.798;2022-09-23T05:21:21;9.40;;;7.83;;
2760;SDS011;15420;48.636;9.798;2022-09-23T05:23:51;9.07;;;6.80;;
2760;SDS011;15420;48.636;9.798;2022-09-23T05:26:19;8.70;;;6.37;;
2760;SDS011;15420;48.636;9.798;2022-09-23T05:28:49;8.80;;;7.90;;
2760;SDS011;15420;48.636;9.798;2022-09-23T05:31:19;9.90;;;7.30;;
2760;SDS011;15420;48.636;9.798;2022-09-23T05:33:48;10.67;;;8.10;;
2760;SDS011;15420;48.636;9.798;2022-09-23T05:36:26;9.23;;;7.37;;
2760;SDS011;15420;48.636;9.798;2022-09-23T05:38:55;12.40;;;7.80;;
2760;SDS011;15420;48.636;9.798;2022-09-23T05:41:22;10.30;;;7.90;;
2760;SDS011;15420;48.636;9.798;2022-09-23T05:43:49;12.53;;;8.23;;
2760;SDS011;15420;48.636;9.798;2022-09-23T05:46:20;13.10;;;8.20;;
2760;SDS011;15420;48.636;9.798;2022-09-23T05:48:53;10.10;;;7.93;;
2760;SDS011;15420;48.636;9.798;2022-09-23T05:51:21;15.20;;;8.63;;
2760;SDS011;15420;48.636;9.798;2022-09-23T05:53:51;11.27;;;8.97;;
2760;SDS011;15420;48.636;9.798;2022-09-23T05:56:20;11.87;;;7.23;;
2760;SDS011;15420;48.636;9.798;2022-09-23T05:58:50;10.70;;;8.00;;
2760;SDS011;15420;48.636;9.798;2022-09-23T06:01:21;13.20;;;9.00;;
2760;SDS011;15420;48.636;9.798;2022-09-23T06:03:53;12.53;;;8.70;;
2760;SDS011;15420;48.636;9.798;2022-09-23T06:06:26;17.17;;;9.57;;
2760;SDS011;15420;48.636;9.798;2022-09-23T06:08:56;13.83;;;9.00;;
2760;SDS011;15420;48.636;9.798;2022-09-23T06:11:23;9.73;;;7.93;;
2760;SDS011;15420;48.636;9.798;2022-09-23T06:13:56;13.67;;;8.73;;
2760;SDS011;15420;48.636;9.798;2022-09-23T06:16:25;11.03;;;8.63;;
2760;SDS011;15420;48.636;9.798;2022-09-23T06:18:56;12.00;;;8.57;;
2760;SDS011;15420;48.636;9.798;2022-09-23T06:21:31;11.03;;;8.50;;
2760;SDS011;15420;48.636;9.798;2022-09-23T06:23:59;14.03;;;8.33;;
2760;SDS011;15420;48.636;9.798;2022-09-23T06:26:27;10.37;;;8.07;;
2760;SDS011;15420;48.636;9.798;2022-09-23T06:28:56;11.50;;;8.10;;
2760;SDS011;15420;48.636;9.798;2022-09-23T06:31:22;10.70;;;7.67;;
2760;SDS011;15420;48.636;9.798;2022-09-23T06:33:48;10.40;;;7.80;;
2760;SDS011;15420;48.636;9.798;2022-09-23T06:36:17;10.83;;;8.23;;
2760;SDS011;15420;48.636;9.798;2022-09-23T06:38:48;11.33;;;8.63;;
2760;SDS011;15420;48.636;9.798;2022-09-23T06:41:17;11.67;;;8.17;;
2760;SDS011;15420;48.636;9.798;2022-09-23T06:43:44;11.47;;;8.17;;
2760;SDS011;15420;48.636;9.798;2022-09-23T06:46:12;10.47;;;8.10;;
2760;SDS011;15420;48.636;9.798;2022-09-23T06:48:40;10.77;;;8.37;;
2760;SDS011;15420;48.636;9.798;2022-09-23T06:51:12;8.93;;;7.97;;
2760;SDS011;15420;48.636;9.798;2022-09-23T06:53:43;10.83;;;8.27;;
2760;SDS011;15420;48.636;9.798;2022-09-23T06:56:12;12.90;;;8.40;;
2760;SDS011;15420;48.636;9.798;2022-09-23T06:58:43;10.40;;;8.90;;
2760;SDS011;15420;48.636;9.798;2022-09-23T07:01:10;12.03;;;8.70;;
2760;SDS011;15420;48.636;9.798;2022-09-23T07:03:42;9.77;;;7.73;;
2760;SDS011;15420;48.636;9.798;2022-09-23T07:06:12;9.90;;;8.23;;
2760;SDS011;15420;48.636;9.798;2022-09-23T07:08:40;13.07;;;8.13;;
2760;SDS011;15420;48.636;9.798;2022-09-23T07:11:08;9.53;;;7.80;;
2760;SDS011;15420;48.636;9.798;2022-09-23T07:13:37;10.90;;;8.13;;
2760;SDS011;15420;48.636;9.798;2022-09-23T07:16:06;9.37;;;8.10;;
2760;SDS011;15420;48.636;9.798;2022-09-23T07:18:33;11.57;;;8.97;;
2760;SDS011;15420;48.636;9.798;2022-09-23T07:21:08;12.70;;;9.10;;
2760;SDS011;15420;48.636;9.798;2022-09-23T07:23:39;13.33;;;9.30;;
2760;SDS011;15420;48.636;9.798;2022-09-23T07:26:16;9.97;;;8.00;;
2760;SDS011;15420;48.636;9.798;2022-09-23T07:28:43;10.70;;;7.83;;
2760;SDS011;15420;48.636;9.798;2022-09-23T07:31:13;14.73;;;8.50;;
2760;SDS011;15420;48.636;9.798;2022-09-23T07:33:43;10.70;;;7.77;;
2760;SDS011;15420;48.636;9.798;2022-09-23T07:36:15;10.70;;;8.07;;
2760;SDS011;15420;48.636;9.798;2022-09-23T07:38:43;9.23;;;7.80;;
2760;SDS011;15420;48.636;9.798;2022-09-23T07:41:17;8.90;;;7.63;;
2760;SDS011;15420;48.636;9.798;2022-09-23T07:43:44;10.47;;;8.70;;
2760;SDS011;15420;48.636;9.798;2022-09-23T07:46:12;10.57;;;8.23;;
2760;SDS011;15420;48.636;9.798;2022-09-23T07:48:41;11.10;;;7.50;;
2760;SDS011;15420;48.636;9.798;2022-09-23T07:51:12;11.20;;;7.63;;
2760;SDS011;15420;48.636;9.798;2022-09-23T07:53:44;10.93;;;8.13;;
2760;SDS011;15420;48.636;9.798;2022-09-23T07:56:12;9.20;;;7.87;;
2760;SDS011;15420;48.636;9.798;2022-09-23T07:58:38;13.80;;;7.70;;
2760;SDS011;15420;48.636;9.798;2022-09-23T08:01:05;10.73;;;7.87;;
2760;SDS011;15420;48.636;9.798;2022-09-23T08:03:36;8.97;;;7.00;;
2760;SDS011;15420;48.636;9.798;2022-09-23T08:08:33;10.40;;;7.70;;
2760;SDS011;15420;48.636;9.798;2022-09-23T08:11:03;9.17;;;7.37;;
2760;SDS011;15420;48.636;9.798;2022-09-23T08:13:34;10.33;;;7.43;;
2760;SDS011;15420;48.636;9.798;2022-09-23T08:16:00;9.70;;;7.27;;
2760;SDS011;15420;48.636;9.798;2022-09-23T08:18:27;8.10;;;7.00;;
2760;SDS011;15420;48.636;9.798;2022-09-23T08:20:56;9.17;;;7.40;;
2760;SDS011;15420;48.636;9.798;2022-09-23T08:23:22;9.87;;;7.33;;
2760;SDS011;15420;48.636;9.798;2022-09-23T08:25:58;8.33;;;6.53;;
2760;SDS011;15420;48.636;9.798;2022-09-23T08:28:26;9.47;;;6.53;;
2760;SDS011;15420;48.636;9.798;2022-09-23T08:30:53;7.60;;;6.80;;
2760;SDS011;15420;48.636;9.798;2022-09-23T08:33:20;6.73;;;5.97;;
2760;SDS011;15420;48.636;9.798;2022-09-23T08:35:46;6.70;;;6.00;;
2760;SDS011;15420;48.636;9.798;2022-09-23T08:38:15;12.90;;;7.10;;
2760;SDS011;15420;48.636;9.798;2022-09-23T08:40:42;8.60;;;6.40;;
2760;SDS011;15420;48.636;9.798;2022-09-23T08:43:26;7.13;;;5.73;;
2760;SDS011;15420;48.636;9.798;2022-09-23T08:45:54;7.80;;;6.70;;
2760;SDS011;15420;48.636;9.798;2022-09-23T08:51:06;6.50;;;5.77;;
2760;SDS011;15420;48.636;9.798;2022-09-23T08:53:41;6.40;;;5.50;;
2760;SDS011;15420;48.636;9.798;2022-09-23T08:56:13;7.07;;;5.80;;
2760;SDS011;15420;48.636;9.798;2022-09-23T09:06:51;5.93;;;5.17;;
2760;SDS011;15420;48.636;9.798;2022-09-23T09:12:19;5.37;;;4.87;;
2760;SDS011;15420;48.636;9.798;2022-09-23T09:15:00;6.50;;;5.27;;
2760;SDS011;15420;48.636;9.798;2022-09-23T09:17:36;6.60;;;5.90;;
2760;SDS011;15420;48.636;9.798;2022-09-23T09:20:17;6.63;;;5.37;;
2760;SDS011;15420;48.636;9.798;2022-09-23T09:27:55;5.20;;;4.77;;
2760;SDS011;15420;48.636;9.798;2022-09-23T09:30:25;8.93;;;5.20;;
2760;SDS011;15420;48.636;9.798;2022-09-23T09:33:02;5.90;;;5.23;;
2760;SDS011;15420;48.636;9.798;2022-09-23T09:35:36;5.03;;;4.57;;
2760;SDS011;15420;48.636;9.798;2022-09-23T09:38:18;5.00;;;4.40;;
2760;SDS011;15420;48.636;9.798;2022-09-23T09:40:46;7.30;;;5.50;;
2760;SDS011;15420;48.636;9.798;2022-09-23T09:43:17;5.93;;;4.80;;
2760;SDS011;15420;48.636;9.798;2022-09-23T09:49:06;4.50;;;4.10;;
2760;SDS011;15420;48.636;9.798;2022-09-23T09:51:24;7.83;;;5.10;;
2760;SDS011;15420;48.636;9.798;2022-09-23T09:53:52;5.57;;;4.50;;
2760;SDS011;15420;48.636;9.798;2022-09-23T09:56:38;4.20;;;3.90;;
2760;SDS011;15420;48.636;9.798;2022-09-23T09:59:09;4.90;;;3.90;;
2760;SDS011;15420;48.636;9.798;2022-09-23T10:01:40;4.70;;;4.20;;
2760;SDS011;15420;48.636;9.798;2022-09-23T10:04:20;4.85;;;4.35;;
2760;SDS011;15420;48.636;9.798;2022-09-23T10:09:35;4.13;;;3.73;;
2760;SDS011;15420;48.636;9.798;2022-09-23T10:12:16;5.23;;;4.63;;
2760;SDS011;15420;48.636;9.798;2022-09-23T10:14:47;4.77;;;4.27;;
2760;SDS011;15420;48.636;9.798;2022-09-23T10:17:33;6.10;;;4.33;;
2760;SDS011;15420;48.636;9.798;2022-09-23T10:20:13;3.80;;;3.50;;
2760;SDS011;15420;48.636;9.798;2022-09-23T10:22:40;4.70;;;4.30;;
2760;SDS011;15420;48.636;9.798;2022-09-23T10:25:08;4.90;;;4.40;;
2760;SDS011;15420;48.636;9.798;2022-09-23T10:27:43;4.53;;;4.13;;
2760;SDS011;15420;48.636;9.798;2022-09-23T10:32:53;4.10;;;3.80;;
2760;SDS011;15420;48.636;9.798;2022-09-23T10:35:21;5.27;;;4.00;;
2760;SDS011;15420;48.636;9.798;2022-09-23T10:37:56;4.17;;;3.80;;
2760;SDS011;15420;48.636;9.798;2022-09-23T10:40:27;4.90;;;4.10;;
2760;SDS011;15420;48.636;9.798;2022-09-23T11:00:10;3.77;;;3.47;;
2760;SDS011;15420;48.636;9.798;2022-09-23T11:08:42;3.50;;;3.20;;
2760;SDS011;15420;48.636;9.798;2022-09-23T11:30:12;5.53;;;3.60;;
2760;SDS011;15420;48.636;9.798;2022-09-23T11:33:06;10.53;;;3.50;;
2760;SDS011;15420;48.636;9.798;2022-09-23T11:36:03;3.50;;;3.20;;
2760;SDS011;15420;48.636;9.798;2022-09-23T11:38:41;4.60;;;3.80;;
2760;SDS011;15420;48.636;9.798;2022-09-23T11:41:15;3.57;;;2.70;;
2760;SDS011;15420;48.636;9.798;2022-09-23T11:43:51;3.43;;;3.13;;
2760;SDS011;15420;48.636;9.798;2022-09-23T11:46:31;3.73;;;3.20;;
2760;SDS011;15420;48.636;9.798;2022-09-23T11:52:05;3.20;;;2.90;;
2760;SDS011;15420;48.636;9.798;2022-09-23T11:57:54;3.23;;;2.93;;
2760;SDS011;15420;48.636;9.798;2022-09-23T12:00:27;3.40;;;2.80;;
2760;SDS011;15420;48.636;9.798;2022-09-23T12:03:14;2.50;;;2.30;;
2760;SDS011;15420;48.636;9.798;2022-09-23T12:08:30;2.77;;;2.57;;
2760;SDS011;15420;48.636;9.798;2022-09-23T12:11:13;4.83;;;2.80;;
2760;SDS011;15420;48.636;9.798;2022-09-23T12:24:53;3.20;;;2.80;;
2760;SDS011;15420;48.636;9.798;2022-09-23T12:27:40;3.80;;;3.10;;
2760;SDS011;15420;48.636;9.798;2022-09-23T12:30:19;3.17;;;2.97;;
2760;SDS011;15420;48.636;9.798;2022-09-23T12:32:47;3.37;;;2.70;;
2760;SDS011;15420;48.636;9.798;2022-09-23T12:35:20;3.20;;;2.47;;
2760;SDS011;15420;48.636;9.798;2022-09-23T12:37:50;2.80;;;2.50;;
2760;SDS011;15420;48.636;9.798;2022-09-23T12:40:21;1.93;;;1.83;;
2760;SDS011;15420;48.636;9.798;2022-09-23T12:42:58;1.80;;;1.70;;
2760;SDS011;15420;48.636;9.798;2022-09-23T12:48:02;1.90;;;1.80;;
2760;SDS011;15420;48.636;9.798;2022-09-23T12:50:49;2.37;;;2.17;;
2760;SDS011;15420;48.636;9.798;2022-09-23T12:56:01;2.37;;;2.00;;
2760;SDS011;15420;48.636;9.798;2022-09-23T13:03:47;1.80;;;1.70;;
2760;SDS011;15420;48.636;9.798;2022-09-23T13:06:38;2.00;;;1.77;;
2760;SDS011;15420;48.636;9.798;2022-09-23T13:09:09;3.90;;;2.00;;
2760;SDS011;15420;48.636;9.798;2022-09-23T13:11:48;2.23;;;2.13;;
2760;SDS011;15420;48.636;9.798;2022-09-23T13:14:15;2.50;;;1.83;;
2760;SDS011;15420;48.636;9.798;2022-09-23T13:16:46;2.10;;;1.90;;
2760;SDS011;15420;48.636;9.798;2022-09-23T13:22:02;1.93;;;1.83;;
2760;SDS011;15420;48.636;9.798;2022-09-23T13:24:51;2.73;;;2.30;;
2760;SDS011;15420;48.636;9.798;2022-09-23T13:27:25;2.10;;;2.00;;
2760;SDS011;15420;48.636;9.798;2022-09-23T13:32:31;3.10;;;2.10;;
2760;SDS011;15420;48.636;9.798;2022-09-23T13:40:25;2.80;;;2.50;;
2760;SDS011;15420;48.636;9.798;2022-09-23T13:42:55;2.40;;;2.20;;
2760;SDS011;15420;48.636;9.798;2022-09-23T13:45:22;2.43;;;1.77;;
2760;SDS011;15420;48.636;9.798;2022-09-23T13:47:50;3.33;;;3.03;;
2760;SDS011;15420;48.636;9.798;2022-09-23T13:50:25;2.70;;;2.50;;
2760;SDS011;15420;48.636;9.798;2022-09-23T13:52:54;2.23;;;1.80;;
2760;SDS011;15420;48.636;9.798;2022-09-23T13:55:28;17.67;;;14.50;;
2760;SDS011;15420;48.636;9.798;2022-09-23T14:00:41;6.93;;;6.33;;
2760;SDS011;15420;48.636;9.798;2022-09-23T14:03:42;3.90;;;3.40;;
2760;SDS011;15420;48.636;9.798;2022-09-23T14:06:08;2.77;;;2.57;;
2760;SDS011;15420;48.636;9.798;2022-09-23T14:08:39;2.93;;;2.20;;
2760;SDS011;15420;48.636;9.798;2022-09-23T14:11:15;3.80;;;2.20;;
2760;SDS011;15420;48.636;9.798;2022-09-23T14:13:43;2.70;;;2.33;;
2760;SDS011;15420;48.636;9.798;2022-09-23T14:16:11;2.30;;;2.17;;
2760;SDS011;15420;48.636;9.798;2022-09-23T14:23:51;2.83;;;2.17;;
2760;SDS011;15420;48.636;9.798;2022-09-23T14:26:20;2.43;;;2.33;;
2760;SDS011;15420;48.636;9.798;2022-09-23T14:28:48;7.07;;;6.33;;
2760;SDS011;15420;48.636;9.798;2022-09-23T14:31:14;12.03;;;9.33;;
2760;SDS011;15420;48.636;9.798;2022-09-23T14:33:41;16.03;;;11.83;;
2760;SDS011;15420;48.636;9.798;2022-09-23T14:36:14;13.10;;;10.10;;
2760;SDS011;15420;48.636;9.798;2022-09-23T14:39:10;7.00;;;6.27;;
2760;SDS011;15420;48.636;9.798;2022-09-23T14:41:38;6.70;;;5.33;;
2760;SDS011;15420;48.636;9.798;2022-09-23T14:44:22;4.40;;;4.07;;
2760;SDS011;15420;48.636;9.798;2022-09-23T14:46:53;3.87;;;3.57;;
2760;SDS011;15420;48.636;9.798;2022-09-23T14:49:21;3.47;;;2.90;;
2760;SDS011;15420;48.636;9.798;2022-09-23T14:51:52;2.83;;;2.47;;
2760;SDS011;15420;48.636;9.798;2022-09-23T14:54:34;2.63;;;2.43;;
2760;SDS011;15420;48.636;9.798;2022-09-23T14:59:54;3.70;;;3.00;;
2760;SDS011;15420;48.636;9.798;2022-09-23T15:02:28;2.77;;;2.57;;
2760;SDS011;15420;48.636;9.798;2022-09-23T15:07:52;2.77;;;2.20;;
2760;SDS011;15420;48.636;9.798;2022-09-23T15:10:25;4.97;;;3.20;;
2760;SDS011;15420;48.636;9.798;2022-09-23T15:13:01;3.10;;;2.37;;
2760;SDS011;15420;48.636;9.798;2022-09-23T15:15:32;5.50;;;2.47;;
2760;SDS011;15420;48.636;9.798;2022-09-23T15:18:02;4.23;;;2.43;;
2760;SDS011;15420;48.636;9.798;2022-09-23T15:20:39;3.80;;;2.70;;
2760;SDS011;15420;48.636;9.798;2022-09-23T15:23:30;2.87;;;2.57;;
2760;SDS011;15420;48.636;9.798;2022-09-23T15:26:10;3.37;;;3.07;;
2760;SDS011;15420;48.636;9.798;2022-09-23T15:28:42;3.93;;;2.60;;
2760;SDS011;15420;48.636;9.798;2022-09-23T15:31:15;3.43;;;2.73;;
2760;SDS011;15420;48.636;9.798;2022-09-23T15:33:44;3.87;;;2.80;;
2760;SDS011;15420;48.636;9.798;2022-09-23T15:36:18;3.13;;;2.53;;
2760;SDS011;15420;48.636;9.798;2022-09-23T15:38:45;3.30;;;2.60;;
2760;SDS011;15420;48.636;9.798;2022-09-23T15:41:13;2.03;;;1.93;;
2760;SDS011;15420;48.636;9.798;2022-09-23T15:43:41;4.40;;;2.20;;
2760;SDS011;15420;48.636;9.798;2022-09-23T15:46:20;3.73;;;2.67;;
2760;SDS011;15420;48.636;9.798;2022-09-23T15:51:19;2.83;;;2.47;;
2760;SDS011;15420;48.636;9.798;2022-09-23T15:53:45;2.43;;;2.23;;
2760;SDS011;15420;48.636;9.798;2022-09-23T15:56:14;2.40;;;2.30;;
2760;SDS011;15420;48.636;9.798;2022-09-23T15:58:43;4.30;;;2.80;;
2760;SDS011;15420;48.636;9.798;2022-09-23T16:01:13;4.10;;;2.83;;
2760;SDS011;15420;48.636;9.798;2022-09-23T16:03:52;2.80;;;2.60;;
2760;SDS011;15420;48.636;9.798;2022-09-23T16:06:19;2.70;;;2.50;;
2760;SDS011;15420;48.636;9.798;2022-09-23T16:08:49;4.97;;;4.10;;
2760;SDS011;15420;48.636;9.798;2022-09-23T16:11:34;7.67;;;5.50;;
2760;SDS011;15420;48.636;9.798;2022-09-23T16:14:03;8.90;;;6.23;;
2760;SDS011;15420;48.636;9.798;2022-09-23T16:16:34;8.10;;;4.83;;
2760;SDS011;15420;48.636;9.798;2022-09-23T16:19:04;4.60;;;4.10;;
2760;SDS011;15420;48.636;9.798;2022-09-23T16:21:35;5.47;;;3.47;;
2760;SDS011;15420;48.636;9.798;2022-09-23T16:24:04;4.30;;;3.23;;
2760;SDS011;15420;48.636;9.798;2022-09-23T16:26:38;4.70;;;3.90;;
2760;SDS011;15420;48.636;9.798;2022-09-23T16:29:11;4.20;;;3.20;;
2760;SDS011;15420;48.636;9.798;2022-09-23T16:31:37;3.80;;;3.50;;
2760;SDS011;15420;48.636;9.798;2022-09-23T16:34:06;5.97;;;5.50;;
2760;SDS011;15420;48.636;9.798;2022-09-23T16:36:33;4.87;;;4.57;;
2760;SDS011;15420;48.636;9.798;2022-09-23T16:39:06;3.97;;;3.67;;
2760;SDS011;15420;48.636;9.798;2022-09-23T16:41:34;8.30;;;4.67;;
2760;SDS011;15420;48.636;9.798;2022-09-23T16:44:04;4.60;;;4.00;;
2760;SDS011;15420;48.636;9.798;2022-09-23T16:46:33;5.33;;;4.30;;
2760;SDS011;15420;48.636;9.798;2022-09-23T16:48:59;6.53;;;4.23;;
2760;SDS011;15420;48.636;9.798;2022-09-23T16:51:29;5.83;;;4.47;;
2760;SDS011;15420;48.636;9.798;2022-09-23T16:54:07;4.97;;;3.50;;
2760;SDS011;15420;48.636;9.798;2022-09-23T16:56:37;6.67;;;4.83;;
2760;SDS011;15420;48.636;9.798;2022-09-23T16:59:08;4.30;;;3.80;;
2760;SDS011;15420;48.636;9.798;2022-09-23T17:01:37;5.47;;;3.50;;
2760;SDS011;15420;48.636;9.798;2022-09-23T17:04:26;6.20;;;3.80;;
2760;SDS011;15420;48.636;9.798;2022-09-23T17:06:53;4.17;;;3.77;;
2760;SDS011;15420;48.636;9.798;2022-09-23T17:09:23;5.40;;;3.60;;
2760;SDS011;15420;48.636;9.798;2022-09-23T17:11:52;5.20;;;4.10;;
2760;SDS011;15420;48.636;9.798;2022-09-23T17:14:41;4.13;;;3.73;;
2760;SDS011;15420;48.636;9.798;2022-09-23T17:17:07;4.47;;;4.07;;
2760;SDS011;15420;48.636;9.798;2022-09-23T17:19:33;3.53;;;3.20;;
2760;SDS011;15420;48.636;9.798;2022-09-23T17:22:01;4.20;;;3.80;;
2760;SDS011;15420;48.636;9.798;2022-09-23T17:24:29;4.43;;;4.03;;
2760;SDS011;15420;48.636;9.798;2022-09-23T17:26:55;4.60;;;4.07;;
2760;SDS011;15420;48.636;9.798;2022-09-23T17:29:22;3.47;;;3.17;;
2760;SDS011;15420;48.636;9.798;2022-09-23T17:31:53;4.67;;;3.60;;
2760;SDS011;15420;48.636;9.798;2022-09-23T17:34:22;5.67;;;4.90;;
2760;SDS011;15420;48.636;9.798;2022-09-23T17:36:52;7.60;;;6.27;;
2760;SDS011;15420;48.636;9.798;2022-09-23T17:39:20;13.33;;;9.90;;
2760;SDS011;15420;48.636;9.798;2022-09-23T17:41:49;20.50;;;13.30;;
2760;SDS011;15420;48.636;9.798;2022-09-23T17:44:21;15.00;;;10.90;;
2760;SDS011;15420;48.636;9.798;2022-09-23T17:46:49;24.57;;;16.03;;
2760;SDS011;15420;48.636;9.798;2022-09-23T17:49:17;18.40;;;12.10;;
2760;SDS011;15420;48.636;9.798;2022-09-23T17:51:45;28.47;;;19.27;;
2760;SDS011;15420;48.636;9.798;2022-09-23T17:54:11;23.93;;;17.17;;
2760;SDS011;15420;48.636;9.798;2022-09-23T17:56:39;24.20;;;18.03;;
2760;SDS011;15420;48.636;9.798;2022-09-23T17:59:08;21.70;;;16.47;;
2760;SDS011;15420;48.636;9.798;2022-09-23T18:01:38;20.23;;;16.03;;
2760;SDS011;15420;48.636;9.798;2022-09-23T18:04:04;20.10;;;15.20;;
2760;SDS011;15420;48.636;9.798;2022-09-23T18:06:32;17.83;;;14.37;;
2760;SDS011;15420;48.636;9.798;2022-09-23T18:09:02;17.30;;;12.50;;
2760;SDS011;15420;48.636;9.798;2022-09-23T18:11:31;13.13;;;10.73;;
2760;SDS011;15420;48.636;9.798;2022-09-23T18:14:05;17.00;;;14.00;;
2760;SDS011;15420;48.636;9.798;2022-09-23T18:16:38;12.93;;;11.63;;
2760;SDS011;15420;48.636;9.798;2022-09-23T18:19:06;13.60;;;12.20;;
2760;SDS011;15420;48.636;9.798;2022-09-23T18:21:36;12.37;;;11.07;;
2760;SDS011;15420;48.636;9.798;2022-09-23T18:24:07;10.90;;;9.87;;
2760;SDS011;15420;48.636;9.798;2022-09-23T18:26:34;9.40;;;8.50;;
2760;SDS011;15420;48.636;9.798;2022-09-23T18:29:03;8.40;;;6.67;;
2760;SDS011;15420;48.636;9.798;2022-09-23T18:31:31;6.90;;;6.20;;
2760;SDS011;15420;48.636;9.798;2022-09-23T18:33:59;6.33;;;5.60;;
2760;SDS011;15420;48.636;9.798;2022-09-23T18:36:27;7.90;;;7.10;;
2760;SDS011;15420;48.636;9.798;2022-09-23T18:38:57;8.83;;;7.33;;
2760;SDS011;15420;48.636;9.798;2022-09-23T18:41:23;8.93;;;7.73;;
2760;SDS011;15420;48.636;9.798;2022-09-23T18:43:52;6.30;;;5.70;;